Latest Weather Observations for Lucinda

IDQ60801

Issued at 5:05 pm EST Wednesday 16 April 2014 (issued every 30 minutes, with the page automatically refreshed every 10 minutes)

About weather observations | Map of weather stations | Latest weather observations for QLD | Other Formats
Station Details ID: 032141 Name: LUCINDA POINT Lat: -18.52 Lon: 146.39 Height: 10.0 m
Data from the previous 72 hours. | See also: Recent months for locations in Queensland
Date/Time
EST
Temp
°C
App
Temp
°C
Dew
Point
Rel
Hum
%
Delta-T
°C
Wind Press
QNH
hPa
Press
MSL
hPa
Rain
since 9 am
mm
Dir
 
Spd
km/h
Gust
km/h
Spd
kts
Gust
kts
16/05:00pm 26.9 28.8 20.5 68 4.2 ESE 11 20 6 11 1012.2 - 0.6
16/04:30pm 26.9 27.9 20.3 67 4.3 SE 15 20 8 11 1012.1 - 0.6
16/04:00pm 27.6 29.0 20.4 65 4.7 SE 13 22 7 12 1012.0 - 0.6
16/03:30pm 27.5 28.5 20.3 65 4.7 SE 15 24 8 13 1012.0 - 0.6
16/03:00pm 27.2 27.9 20.5 67 4.4 SE 17 24 9 13 1011.9 1011.8 0.6
16/02:30pm 27.7 28.6 20.0 63 5.0 SE 15 22 8 12 1012.2 - 0.6
16/02:00pm 27.8 28.5 20.4 64 4.9 ESE 17 20 9 11 1012.5 - 0.6
16/01:30pm 27.7 28.5 19.8 62 5.1 ESE 15 20 8 11 1012.8 - 0.6
16/01:00pm 27.5 28.1 20.3 65 4.7 ESE 17 24 9 13 1013.1 - 0.6
16/12:30pm 27.3 27.6 19.6 62 5.0 ESE 17 24 9 13 1013.4 - 0.6
16/12:00pm 27.8 28.3 20.1 63 5.0 ESE 17 22 9 12 1013.9 1013.8 0.4
16/11:30am 27.7 28.3 19.5 61 5.3 SE 15 24 8 13 1014.2 - 0.4
16/11:00am 26.7 28.9 21.2 72 3.6 SSE 11 20 6 11 1014.7 - 0.4
16/10:30am 26.4 28.3 20.5 70 3.9 S 11 17 6 9 1014.9 - 0.4
16/10:00am 27.0 28.6 20.8 69 4.1 SE 13 20 7 11 1015.0 - 0.0
16/09:30am 27.2 28.7 20.5 67 4.4 SE 13 20 7 11 1014.8 - 0.0
16/09:00am 26.8 27.7 20.9 70 3.9 SE 17 24 9 13 1014.6 1014.5 0.0
16/08:30am 26.6 27.9 20.9 71 3.8 SE 15 22 8 12 1014.3 - 0.0
16/08:00am 26.4 27.9 20.5 70 3.9 SE 13 20 7 11 1014.1 - 0.0
16/07:30am 26.3 27.6 20.8 71 3.6 SE 15 22 8 12 1013.9 - 0.0
16/07:00am 26.0 27.4 20.3 71 3.7 SE 13 20 7 11 1013.8 - 0.0
16/06:30am 26.1 27.4 20.2 70 3.8 SE 13 17 7 9 1013.6 - 0.0
16/06:00am 25.8 27.8 20.8 74 3.3 ESE 11 17 6 9 1013.1 1013.0 0.0
16/05:30am 25.1 29.1 20.6 76 2.9 CALM 0 0 0 0 1012.8 - 0.0
16/05:00am 25.1 27.6 19.9 73 3.4 SSE 6 9 3 5 1012.7 - 0.0
16/04:30am 25.8 28.5 20.6 73 3.4 ESE 7 11 4 6 1012.6 - 0.0
16/04:00am 25.7 27.6 20.5 73 3.4 ESE 11 15 6 8 1012.4 - 0.0
16/03:30am 25.8 28.5 20.6 73 3.4 ESE 7 13 4 7 1012.4 - 0.0
16/03:00am 25.8 28.5 20.6 73 3.4 SE 7 15 4 8 1012.5 1012.4 0.0
16/02:30am 25.8 27.9 20.1 71 3.7 ESE 9 17 5 9 1012.5 - 0.0
16/02:00am 25.9 27.9 20.7 73 3.4 SE 11 19 6 10 1012.7 - 0.0
16/01:30am 26.0 27.3 20.1 70 3.8 ESE 13 17 7 9 1013.0 - 0.0
16/01:00am 26.2 27.5 20.1 69 4.0 E 13 17 7 9 1013.2 - 0.0
16/12:30am 26.2 27.5 20.1 69 4.0 E 13 15 7 8 1013.5 - 0.0
16/12:00am 26.2 27.9 20.1 69 4.0 E 11 15 6 8 1013.7 1013.6 0.0
 
Date/Time
EST
Temp
°C
App
Temp
°C
Dew
Point
Rel
Hum
%
Delta-T
°C
Wind Press
QNH
hPa
Press
MSL
hPa
Rain
since 9 am
mm
Dir
 
Spd
km/h
Gust
km/h
Spd
kts
Gust
kts
15/11:30pm 26.3 28.0 20.2 69 4.0 ENE 11 15 6 8 1013.7 - 0.0
15/11:00pm 26.3 27.4 20.4 70 3.9 NE 15 17 8 9 1013.9 - 0.0
15/10:30pm 26.3 27.0 20.4 70 3.9 NE 17 19 9 10 1013.7 - 0.0
15/10:00pm 26.3 27.3 20.2 69 4.0 ENE 15 19 8 10 1014.0 - 0.0
15/09:30pm 26.3 27.6 20.2 69 4.0 E 13 17 7 9 1014.0 - 0.0
15/09:00pm 26.3 27.3 20.2 69 4.0 E 15 20 8 11 1013.9 1013.8 0.0
15/08:30pm 26.2 28.0 20.3 70 3.9 ESE 11 19 6 10 1013.4 - 0.0
15/08:00pm 26.3 27.9 19.9 68 4.2 ESE 11 17 6 9 1013.2 - 0.0
15/07:30pm 26.4 27.9 19.8 67 4.3 ESE 11 19 6 10 1012.8 - 0.0
15/07:00pm 26.4 27.3 20.0 68 4.2 ESE 15 20 8 11 1012.5 - 0.0
15/06:30pm 26.5 27.3 19.9 67 4.3 ESE 15 20 8 11 1012.0 - 0.0
15/06:00pm 26.6 28.1 19.7 66 4.5 ESE 11 17 6 9 1011.9 1011.8 0.0
15/05:30pm 26.9 27.9 19.5 64 4.8 E 13 17 7 9 1011.5 - 0.0
15/05:00pm 26.6 27.7 19.7 66 4.5 E 13 19 7 10 1011.2 - 0.0
15/04:30pm 26.7 27.6 19.3 64 4.8 ENE 13 19 7 10 1011.1 - 0.0
15/04:00pm 26.9 27.3 19.0 62 5.1 E 15 19 8 10 1010.8 - 0.0
15/03:30pm 27.1 27.6 19.2 62 5.1 E 15 19 8 10 1010.9 - 0.0
15/03:00pm 27.3 28.0 19.6 62 5.0 E 15 20 8 11 1011.3 1011.2 0.0
15/02:30pm 27.8 28.9 20.4 64 4.9 ESE 15 20 8 11 1011.4 - 0.0
15/02:00pm 27.4 28.5 19.7 63 5.0 E 13 17 7 9 1011.8 - 0.0
15/01:30pm 27.8 29.0 19.8 61 5.2 E 13 19 7 10 1011.9 - 0.0
15/01:00pm 27.7 28.9 20.0 63 5.0 E 13 19 7 10 1012.2 - 0.0
15/12:30pm 28.2 29.4 20.0 61 5.4 ESE 13 19 7 10 1012.6 - 0.0
15/12:00pm 27.4 28.5 19.7 63 5.0 E 13 20 7 11 1013.1 1013.0 0.0
15/11:30am 27.3 28.4 19.6 62 5.0 E 13 17 7 9 1013.5 - 0.0
15/11:00am 27.5 28.2 19.6 62 5.1 E 15 20 8 11 1013.8 - 0.0
15/10:30am 28.0 31.1 21.1 66 4.6 SSE 6 7 3 4 1014.1 - 0.0
15/10:00am 28.0 32.4 21.3 67 4.5 CALM 0 0 0 0 1014.1 - 0.0
15/09:30am 25.5 29.9 21.4 78 2.7 CALM 0 0 0 0 1013.9 - 0.0
15/09:00am 25.0 27.9 21.1 79 2.6 WSW 7 9 4 5 1013.8 1013.7 0.0
15/08:30am 24.4 26.7 21.3 83 2.0 WSW 11 13 6 7 1013.7 - 0.0
15/08:00am 24.3 26.9 21.2 83 2.0 W 9 11 5 6 1013.2 - 0.0
15/07:30am 23.5 26.3 21.6 89 1.3 SW 9 11 5 6 1012.9 - 0.0
15/07:00am 23.5 25.9 21.6 89 1.3 SW 11 13 6 7 1012.7 - 0.0
15/06:30am 23.7 26.9 22.3 92 0.9 WSW 9 11 5 6 1012.3 - 0.0
15/06:00am 23.8 28.6 22.1 90 1.1 CALM 0 0 0 0 1012.0 1011.9 0.0
15/05:30am 23.7 27.7 22.0 90 1.1 SSW 4 6 2 3 1011.8 - 0.0
15/05:00am 23.8 26.5 22.1 90 1.1 SW 11 13 6 7 1011.6 - 0.0
15/04:30am 23.9 27.6 22.3 91 1.1 WNW 6 7 3 4 1011.5 - 0.0
15/04:00am 23.9 26.9 21.2 85 1.8 WNW 7 7 4 4 1011.3 - 0.0
15/03:30am 23.9 27.5 22.3 91 1.1 WSW 7 9 4 5 1011.4 - 0.0
15/03:00am 24.0 27.0 21.9 88 1.4 W 9 9 5 5 1011.3 1011.2 0.0
15/02:30am 24.5 28.2 22.2 87 1.5 WSW 6 7 3 4 1011.2 - 0.0
15/02:00am 24.8 28.0 22.3 86 1.7 SW 9 11 5 6 1011.5 - 0.0
15/01:30am 24.8 27.0 20.5 77 2.8 WNW 9 9 5 5 1011.4 - 0.0
15/01:00am 24.8 27.2 20.9 79 2.6 NW 9 13 5 7 1011.6 - 0.0
15/12:30am 25.1 26.8 21.0 78 2.7 NNW 13 13 7 7 1011.7 - 0.0
15/12:00am 25.2 27.0 21.1 78 2.7 NNW 13 15 7 8 1011.8 1011.7 0.0
 
Date/Time
EST
Temp
°C
App
Temp
°C
Dew
Point
Rel
Hum
%
Delta-T
°C
Wind Press
QNH
hPa
Press
MSL
hPa
Rain
since 9 am
mm
Dir
 
Spd
km/h
Gust
km/h
Spd
kts
Gust
kts
14/11:30pm 25.4 27.5 20.9 76 3.0 NNW 11 15 6 8 1011.9 - 0.0
14/11:00pm 26.2 27.8 20.7 71 3.6 NNE 13 17 7 9 1012.1 - 0.0
14/10:30pm 26.2 27.8 20.7 71 3.6 ENE 13 15 7 8 1011.9 - 0.0
14/10:00pm 26.3 27.7 20.4 70 3.9 NE 13 17 7 9 1011.8 - 0.0
14/09:30pm 26.3 27.6 20.2 69 4.0 NNE 13 17 7 9 1011.6 - 0.0
14/09:00pm 26.3 27.3 20.2 69 4.0 NNE 15 17 8 9 1011.6 1011.5 0.0
14/08:30pm 26.4 27.4 20.3 69 4.0 NNE 15 17 8 9 1011.2 - 0.0
14/08:00pm 26.5 26.9 20.6 70 3.9 NNE 19 20 10 11 1010.8 - 0.0
14/07:30pm 26.6 26.8 20.2 68 4.2 NE 19 20 10 11 1010.4 - 0.0
14/07:00pm 26.8 27.0 19.4 64 4.8 NE 17 19 9 10 1010.1 - 0.0
14/06:30pm 26.8 28.1 20.2 67 4.3 ENE 13 17 7 9 1009.6 - 0.0
14/06:00pm 26.9 28.1 20.0 66 4.5 E 13 15 7 8 1009.1 1008.9 0.0
14/05:30pm 27.2 28.5 19.3 62 5.1 ESE 11 13 6 7 1008.8 - 0.0
14/05:00pm 27.9 29.5 19.1 58 5.7 ESE 9 15 5 8 1008.4 - 0.0
14/04:30pm 27.8 29.4 19.1 59 5.6 ESE 9 11 5 6 1008.1 - 0.0
14/04:00pm 27.8 29.0 19.1 59 5.6 ESE 11 15 6 8 1007.9 - 0.0
14/03:30pm 27.5 29.0 18.8 59 5.6 E 9 13 5 7 1008.0 - 0.0
14/03:00pm 27.6 28.7 18.9 59 5.6 ENE 11 13 6 7 1008.0 1007.8 0.0
14/02:30pm 27.9 29.6 18.6 57 6.0 E 7 11 4 6 1008.1 - 0.0
14/02:00pm 27.7 29.2 18.1 56 6.1 ESE 7 11 4 6 1008.2 - 0.0
14/01:30pm 28.1 29.6 18.8 57 6.0 ESE 9 11 5 6 1008.6 - 0.0
14/01:00pm 27.7 29.5 18.4 57 5.9 SSE 6 9 3 5 1008.8 - 0.0
14/12:30pm 27.1 28.8 18.1 58 5.7 SSE 6 9 3 5 1009.3 - 0.0
14/12:00pm 27.4 28.7 18.4 58 5.7 SSE 9 15 5 8 1009.9 1009.7 0.0
14/11:30am 26.3 27.5 18.2 61 5.1 SSE 9 17 5 9 1010.3 - 0.0
14/11:00am 26.0 26.7 17.9 61 5.1 S 11 20 6 11 1010.4 - 0.0
14/10:30am 25.6 26.3 18.0 63 4.8 S 11 19 6 10 1010.7 - 0.0
14/10:00am 25.3 25.3 19.0 68 4.0 S 17 22 9 12 1010.8 - 0.0
14/09:30am 25.4 25.3 18.8 67 4.2 S 17 20 9 11 1010.7 - 0.0
14/09:00am 25.1 26.5 19.5 71 3.6 SSW 11 13 6 7 1010.6 1010.5 0.4
14/08:30am 24.6 26.6 19.2 72 3.5 SSW 7 9 4 5 1010.5 - 0.4
14/08:00am 24.7 26.0 19.3 72 3.5 SSW 11 13 6 7 1010.3 - 0.4
14/07:30am 24.4 25.3 19.2 73 3.3 SSW 13 17 7 9 1010.0 - 0.4
14/07:00am 24.1 25.1 19.4 75 3.0 SW 13 15 7 8 1009.5 - 0.4
14/06:30am 24.0 24.6 19.5 76 2.9 SW 15 17 8 9 1009.0 - 0.4
14/06:00am 23.9 24.5 19.4 76 2.9 SW 15 17 8 9 1008.7 1008.5 0.4
14/05:30am 23.8 24.7 19.3 76 2.9 SSW 13 17 7 9 1008.5 - 0.4
14/05:00am 24.2 25.3 19.7 76 2.9 SSW 13 15 7 8 1008.3 - 0.4
14/04:30am 24.1 24.9 19.8 77 2.8 SW 15 20 8 11 1008.2 - 0.4
14/04:00am 24.0 24.7 19.7 77 2.8 SW 15 17 8 9 1008.2 - 0.4
14/03:30am 24.2 25.3 19.7 76 2.9 WSW 13 20 7 11 1008.1 - 0.4
14/03:00am 24.1 25.3 19.8 77 2.8 SW 13 15 7 8 1008.1 1007.9 0.4
14/02:30am 24.1 25.3 19.8 77 2.8 WSW 13 15 7 8 1008.1 - 0.4
14/02:00am 24.5 25.7 20.6 79 2.5 SW 15 17 8 9 1008.0 - 0.4
14/01:30am 25.1 26.2 20.4 75 3.1 SSW 15 17 8 9 1007.9 - 0.4
14/01:00am 25.2 26.3 20.5 75 3.1 SW 15 19 8 10 1008.0 - 0.4
14/12:30am 25.3 26.4 20.5 75 3.1 SW 15 17 8 9 1008.4 - 0.4
14/12:00am 26.0 26.9 20.8 73 3.4 SSW 17 20 9 11 1008.5 1008.3 0.4
 
Date/Time
EST
Temp
°C
App
Temp
°C
Dew
Point
Rel
Hum
%
Delta-T
°C
Wind Press
QNH
hPa
Press
MSL
hPa
Rain
since 9 am
mm
Dir
 
Spd
km/h
Gust
km/h
Spd
kts
Gust
kts
13/11:30pm 26.2 25.8 20.1 69 4.0 S 22 26 12 14 1008.6 - 0.4
13/11:00pm 26.2 25.2 20.5 71 3.7 S 26 28 14 15 1008.8 - 0.4
13/10:30pm 26.4 26.8 20.7 71 3.7 SSW 19 24 10 13 1008.9 - 0.4
13/10:00pm 26.6 28.3 20.9 71 3.8 SSW 13 15 7 8 1008.9 - 0.4
13/09:30pm 26.1 27.6 21.3 75 3.2 SW 15 17 8 9 1008.8 - 0.4
13/09:00pm 26.6 28.8 21.1 72 3.6 W 11 15 6 8 1008.5 1008.3 0.4
13/08:30pm 26.4 28.8 21.6 75 3.2 WNW 11 13 6 7 1008.2 - 0.4
13/08:00pm 27.2 29.7 21.7 72 3.7 SSW 11 13 6 7 1007.6 - 0.4
13/07:30pm 27.2 28.9 21.7 72 3.7 S 15 17 8 9 1007.1 - 0.4
13/07:00pm 27.7 28.8 20.5 65 4.7 S 15 17 8 9 1006.4 - 0.4
13/06:30pm 28.1 29.6 20.6 63 4.9 S 13 15 7 8 1006.1 - 0.4
13/06:00pm 27.9 29.7 21.2 67 4.5 S 13 15 7 8 1005.8 1005.6 0.4
13/05:30pm 28.1 28.5 20.6 63 4.9 SW 19 20 10 11 1005.3 - 0.4

Other Formats:

Comma delimited format used in spreadsheet applications
http://www.bom.gov.au/fwo/IDQ60801/IDQ60801.94295.axf

JavaScript Object Notation format (JSON) in row-major order
http://www.bom.gov.au/fwo/IDQ60801/IDQ60801.94295.json